Cherokee, North Carolina
Current Conditions -  °F | °C
As of 10:35 AM on Friday 28 Nov 2014 (Local Time) from KGKT Reporting Station
Clear Clear  
Wind Chill: 23°   Ceiling: Unl
Heat Index: 30°   Visibility: 10mi
Dew Point: 19°   Wind: 7mph
Humidity: 64%   Direction: 290°WNW
Pressure: 30.44"   Gusts: NA
Location:  35.47°N, 83.31°W
Report Text: KGKT 281535Z AUTO 29006KT 10SM CLR M01/M07 A3044 RMK
Loading
Personal Weather Stations






























Interactive Weather Map New forecast layout! Learn more

10-Day Weather Forecast

Advertisements
Track Severe Weather on mobile